^^
Meteo Knjazevac Station Historical Data
Daily Summary for June 6, 2021 Units:  Metric    English   Both
Daily Weekly Monthly Yearly Custom
  High: Low: Average:
Temperature: 24.6 °C 8.7 °C 16.2 °C
Dew Point: 13.3 °C 6.2 °C 9.7 °C
Humidity: 91% 47% 67%
Wind Speed: 12.9km/h 0km/h 5.1km/h
Wind Gust: 32.2km/h - -
Wind- - SSE
Pressure: 1026 hPa 1022.2 hPa -
Precipitation: 0 mm    
Historical Graphs
 
 
Tabular Data for June 6, 2021
Time Temperature Dew Point Pressure Wind Wind Speed Wind Gust Humidity Rainfall Rate (Hourly) solar Conditions
00:00 12.4 °C 7.7 °C 1022.2 hPa Calm   1.6 km/h 73% 0 mm 0 W/m2
00:10 12.2 °C 7.7 °C 1022.2 hPa Calm   3.2 km/h 74% 0 mm 0 W/m2
00:20 11.8 °C 7.5 °C 1022.6 hPa Calm   4.8 km/h 75% 0 mm 0 W/m2
00:30 11.5 °C 7.2 °C 1022.6 hPa Calm   3.2 km/h 75% 0 mm 0 W/m2
00:40 11.3 °C 7.4 °C 1022.6 hPa Calm   3.2 km/h 77% 0 mm 0 W/m2
00:50 11.3 °C 7.4 °C 1022.6 hPa Calm   4.8 km/h 77% 0 mm 0 W/m2
01:00 11.2 °C 7.3 °C 1022.6 hPa Calm   3.2 km/h 77% 0 mm 0 W/m2
01:10 11 °C 7.3 °C 1022.6 hPa Calm   3.2 km/h 78% 0 mm 0 W/m2
01:20 10.9 °C 7.2 °C 1022.9 hPa Calm   3.2 km/h 78% 0 mm 0 W/m2
01:30 10.7 °C 7 °C 1022.9 hPa Calm   3.2 km/h 78% 0 mm 0 W/m2
01:40 10.5 °C 7 °C 1022.9 hPa WNW 1.6 km/h 4.8 km/h 79% 0 mm 0 W/m2
01:50 10.2 °C 6.9 °C 1022.9 hPa NW 3.2 km/h 4.8 km/h 80% 0 mm 0 W/m2
02:00 10.4 °C 7.1 °C 1022.9 hPa Calm   4.8 km/h 80% 0 mm 0 W/m2
02:10 10.3 °C 7.2 °C 1022.9 hPa NE 1.6 km/h 3.2 km/h 81% 0 mm 0 W/m2
02:20 10.4 °C 7.1 °C 1023.2 hPa NNE 1.6 km/h 4.8 km/h 80% 0 mm 0 W/m2
02:30 10.1 °C 6.8 °C 1023.2 hPa Calm   1.6 km/h 80% 0 mm 0 W/m2
02:40 9.9 °C 6.6 °C 1023.6 hPa Calm   1.6 km/h 80% 0 mm 0 W/m2
02:50 9.8 °C 6.7 °C 1023.6 hPa NW 1.6 km/h 3.2 km/h 81% 0 mm 0 W/m2
03:00 9.6 °C 6.5 °C 1023.6 hPa West 1.6 km/h 3.2 km/h 81% 0 mm 0 W/m2
03:10 9.5 °C 6.8 °C 1023.9 hPa WNW 3.2 km/h 4.8 km/h 83% 0 mm 0 W/m2
03:20 9.4 °C 6.7 °C 1023.9 hPa West 1.6 km/h 6.4 km/h 83% 0 mm 0 W/m2
03:30 9.4 °C 6.8 °C 1023.9 hPa WNW 1.6 km/h 4.8 km/h 84% 0 mm 0 W/m2
03:40 9.2 °C 6.4 °C 1023.9 hPa WNW 1.6 km/h 4.8 km/h 83% 0 mm 0 W/m2
03:50 9 °C 6.4 °C 1024.3 hPa West 1.6 km/h 4.8 km/h 84% 0 mm 0 W/m2
04:00 8.8 °C 6.2 °C 1024.3 hPa NW 1.6 km/h 3.2 km/h 84% 0 mm 0 W/m2
04:10 8.7 °C 6.5 °C 1024.3 hPa NW 3.2 km/h 4.8 km/h 86% 0 mm 0 W/m2
04:20 8.8 °C 6.9 °C 1024.3 hPa WSW 1.6 km/h 6.4 km/h 88% 0 mm 0 W/m2
04:30 9 °C 7.1 °C 1024.3 hPa Calm   3.2 km/h 88% 0 mm 0 W/m2
04:40 8.9 °C 6.5 °C 1024.3 hPa Calm   3.2 km/h 85% 0 mm 0 W/m2
04:50 8.8 °C 6.4 °C 1024.3 hPa North 1.6 km/h 3.2 km/h 85% 0 mm 0 W/m2
05:00 8.8 °C 6.6 °C 1024.3 hPa Calm   3.2 km/h 86% 0 mm 0 W/m2
05:10 9 °C 7.1 °C 1024.3 hPa Calm   3.2 km/h 88% 0 mm 0 W/m2
05:20 8.9 °C 7 °C 1024.3 hPa NNW 1.6 km/h 3.2 km/h 88% 0 mm 0 W/m2
05:30 9.1 °C 7.4 °C 1024.3 hPa Calm   3.2 km/h 89% 0 mm 0 W/m2
05:40 9.1 °C 7.2 °C 1024.6 hPa Calm   3.2 km/h 88% 0 mm 0 W/m2
05:50 9.1 °C 6.9 °C 1024.6 hPa North 1.6 km/h 4.8 km/h 86% 0 mm 0 W/m2
06:00 9 °C 7.1 °C 1024.6 hPa WSW 1.6 km/h 4.8 km/h 88% 0 mm 3 W/m2
06:10 9 °C 7.1 °C 1024.6 hPa NNE 1.6 km/h 3.2 km/h 88% 0 mm 9 W/m2
06:20 8.9 °C 6.7 °C 1024.9 hPa NW 1.6 km/h 3.2 km/h 86% 0 mm 18 W/m2
06:30 8.9 °C 7 °C 1024.9 hPa Calm   3.2 km/h 88% 0 mm 29 W/m2
06:40 8.9 °C 7 °C 1024.9 hPa Calm   4.8 km/h 88% 0 mm 40 W/m2
06:50 9.1 °C 7.6 °C 1025.3 hPa NNE 1.6 km/h 6.4 km/h 90% 0 mm 66 W/m2
07:00 9.1 °C 7.6 °C 1025.3 hPa Calm   9.7 km/h 90% 0 mm 93 W/m2
07:10 9.2 °C 7.7 °C 1025.3 hPa SW 1.6 km/h 3.2 km/h 90% 0 mm 117 W/m2
07:20 9.3 °C 7.7 °C 1025.6 hPa Calm   3.2 km/h 90% 0 mm 145 W/m2
07:30 9.5 °C 7.9 °C 1025.6 hPa Calm   3.2 km/h 90% 0 mm 171 W/m2
07:40 9.7 °C 8.3 °C 1025.6 hPa Calm   1.6 km/h 91% 0 mm 201 W/m2
07:50 10 °C 8.4 °C 1025.6 hPa Calm   3.2 km/h 90% 0 mm 231 W/m2
08:00 10.4 °C 8.8 °C 1025.6 hPa NW 1.6 km/h 3.2 km/h 90% 0 mm 269 W/m2
08:10 10.9 °C 9.3 °C 1025.6 hPa Calm   3.2 km/h 90% 0 mm 303 W/m2
08:20 11.5 °C 9.8 °C 1025.3 hPa South 1.6 km/h 9.7 km/h 89% 0 mm 336 W/m2
08:30 12.6 °C 10.7 °C 1025.3 hPa NNE 1.6 km/h 12.9 km/h 88% 0 mm 368 W/m2
08:40 14.2 °C 11 °C 1025.6 hPa North 9.7 km/h 20.9 km/h 81% 0 mm 405 W/m2
08:50 15.4 °C 11.4 °C 1025.6 hPa North 12.9 km/h 20.9 km/h 77% 0 mm 437 W/m2
09:00 16.2 °C 11.6 °C 1025.6 hPa North 11.3 km/h 22.5 km/h 74% 0 mm 473 W/m2
09:10 16.8 °C 11.7 °C 1025.6 hPa North 11.3 km/h 22.5 km/h 72% 0 mm 503 W/m2
09:20 17.3 °C 11.6 °C 1026 hPa North 9.7 km/h 24.1 km/h 69% 0 mm 538 W/m2
09:30 17.8 °C 11.8 °C 1026 hPa North 8 km/h 20.9 km/h 68% 0 mm 564 W/m2
09:40 18.2 °C 11.5 °C 1025.6 hPa North 12.9 km/h 24.1 km/h 65% 0 mm 594 W/m2
09:50 18.4 °C 11.5 °C 1026 hPa North 11.3 km/h 24.1 km/h 64% 0 mm 617 W/m2
10:00 18.6 °C 11.4 °C 1026 hPa North 11.3 km/h 25.7 km/h 63% 0 mm 293 W/m2
10:10 18.6 °C 11.4 °C 1026 hPa North 12.9 km/h 25.7 km/h 63% 0 mm 328 W/m2
10:20 18.4 °C 11.2 °C 1026 hPa North 12.9 km/h 24.1 km/h 63% 0 mm 484 W/m2
10:30 18.5 °C 11.1 °C 1026 hPa North 11.3 km/h 24.1 km/h 62% 0 mm 377 W/m2
10:40 18.4 °C 11 °C 1026 hPa North 11.3 km/h 25.7 km/h 62% 0 mm 489 W/m2
10:50 18.8 °C 11.4 °C 1026 hPa North 11.3 km/h 25.7 km/h 62% 0 mm 413 W/m2
11:00 19.3 °C 11.3 °C 1026 hPa North 12.9 km/h 25.7 km/h 60% 0 mm 748 W/m2
11:10 19.8 °C 11.6 °C 1026 hPa North 8 km/h 27.4 km/h 59% 0 mm 392 W/m2
11:20 20.1 °C 11.6 °C 1025.6 hPa North 12.9 km/h 22.5 km/h 58% 0 mm 773 W/m2
11:30 20.4 °C 11.8 °C 1026 hPa North 11.3 km/h 27.4 km/h 58% 0 mm 783 W/m2
11:40 20.7 °C 11.9 °C 1025.6 hPa North 12.9 km/h 24.1 km/h 57% 0 mm 792 W/m2
11:50 20.9 °C 12.1 °C 1025.3 hPa North 11.3 km/h 24.1 km/h 57% 0 mm 799 W/m2
12:00 21.1 °C 12.2 °C 1025.3 hPa North 9.7 km/h 24.1 km/h 57% 0 mm 804 W/m2
12:10 21.4 °C 12.8 °C 1025.3 hPa North 11.3 km/h 27.4 km/h 58% 0 mm 775 W/m2
12:20 21.7 °C 12.8 °C 1025.3 hPa North 9.7 km/h 27.4 km/h 57% 0 mm 519 W/m2
12:30 21.6 °C 12.7 °C 1025.3 hPa North 12.9 km/h 20.9 km/h 57% 0 mm 574 W/m2
12:40 21.9 °C 13.3 °C 1024.9 hPa North 9.7 km/h 22.5 km/h 58% 0 mm 809 W/m2
12:50 21.9 °C 13 °C 1024.9 hPa NNE 11.3 km/h 29 km/h 57% 0 mm 806 W/m2
13:00 22.5 °C 13 °C 1024.9 hPa North 11.3 km/h 24.1 km/h 55% 0 mm 802 W/m2
13:10 23 °C 13.2 °C 1024.9 hPa North 12.9 km/h 27.4 km/h 54% 0 mm 796 W/m2
13:20 23.1 °C 13 °C 1024.6 hPa North 11.3 km/h 22.5 km/h 53% 0 mm 788 W/m2
13:30 23 °C 12.6 °C 1024.6 hPa North 8 km/h 22.5 km/h 52% 0 mm 779 W/m2
13:40 23.2 °C 13.1 °C 1024.6 hPa North 11.3 km/h 27.4 km/h 53% 0 mm 768 W/m2
13:50 23.5 °C 13.1 °C 1024.6 hPa North 11.3 km/h 25.7 km/h 52% 0 mm 456 W/m2
14:00 23.7 °C 13.3 °C 1024.6 hPa North 9.7 km/h 27.4 km/h 52% 0 mm 740 W/m2
14:10 23.9 °C 12.6 °C 1024.3 hPa North 9.7 km/h 27.4 km/h 49% 0 mm 725 W/m2
14:20 24 °C 12.9 °C 1024.3 hPa North 11.3 km/h 24.1 km/h 50% 0 mm 659 W/m2
14:30 23.8 °C 12.4 °C 1024.3 hPa North 12.9 km/h 32.2 km/h 49% 0 mm 690 W/m2
14:40 23.9 °C 12.6 °C 1024.3 hPa North 12.9 km/h 32.2 km/h 49% 0 mm 671 W/m2
14:50 23.9 °C 12.6 °C 1024.3 hPa North 11.3 km/h 24.1 km/h 49% 0 mm 650 W/m2
15:00 24 °C 12.6 °C 1024.3 hPa North 12.9 km/h 25.7 km/h 49% 0 mm 628 W/m2
15:10 24.2 °C 12.8 °C 1024.3 hPa North 11.3 km/h 24.1 km/h 49% 0 mm 584 W/m2
15:20 24.3 °C 12.9 °C 1024.3 hPa North 8 km/h 24.1 km/h 49% 0 mm 580 W/m2
15:30 24.6 °C 12.8 °C 1024.3 hPa North 12.9 km/h 24.1 km/h 48% 0 mm 555 W/m2
15:40 24.5 °C 12.8 °C 1024.3 hPa North 11.3 km/h 24.1 km/h 48% 0 mm 528 W/m2
15:50 24.6 °C 12.6 °C 1023.9 hPa North 9.7 km/h 20.9 km/h 47% 0 mm 501 W/m2
16:00 24.4 °C 12.3 °C 1023.9 hPa North 11.3 km/h 22.5 km/h 47% 0 mm 222 W/m2
16:10 23.9 °C 12.2 °C 1023.9 hPa North 11.3 km/h 24.1 km/h 48% 0 mm 445 W/m2
16:20 23.9 °C 12.2 °C 1023.9 hPa North 9.7 km/h 22.5 km/h 48% 0 mm 415 W/m2
16:30 23.8 °C 12.1 °C 1023.9 hPa North 9.7 km/h 24.1 km/h 48% 0 mm 385 W/m2
16:40 23.8 °C 12.1 °C 1024.3 hPa North 11.3 km/h 24.1 km/h 48% 0 mm 355 W/m2
16:50 23.7 °C 12.1 °C 1024.3 hPa North 8 km/h 20.9 km/h 48% 0 mm 325 W/m2
17:00 23.7 °C 12.1 °C 1024.3 hPa North 9.7 km/h 22.5 km/h 48% 0 mm 294 W/m2
17:10 23.6 °C 11.9 °C 1024.3 hPa North 8 km/h 22.5 km/h 48% 0 mm 264 W/m2
17:20 23.5 °C 11.8 °C 1024.3 hPa North 4.8 km/h 19.3 km/h 48% 0 mm 233 W/m2
17:30 23.3 °C 11.7 °C 1024.3 hPa North 11.3 km/h 19.3 km/h 48% 0 mm 193 W/m2
17:40 23 °C 11.7 °C 1024.3 hPa North 9.7 km/h 19.3 km/h 49% 0 mm 159 W/m2
17:50 22.8 °C 11.5 °C 1024.3 hPa North 8 km/h 24.1 km/h 49% 0 mm 127 W/m2
18:00 22.5 °C 11.2 °C 1024.3 hPa North 8 km/h 19.3 km/h 49% 0 mm 99 W/m2
18:10 22.2 °C 11 °C 1024.3 hPa North 8 km/h 19.3 km/h 49% 0 mm 73 W/m2
18:20 21.9 °C 10.7 °C 1024.3 hPa North 4.8 km/h 12.9 km/h 49% 0 mm 51 W/m2
18:30 21.6 °C 10.4 °C 1024.3 hPa North 4.8 km/h 11.3 km/h 49% 0 mm 31 W/m2
18:40 21.3 °C 10.4 °C 1024.3 hPa North 8 km/h 16.1 km/h 50% 0 mm 18 W/m2
18:50 21 °C 10.2 °C 1024.3 hPa North 8 km/h 14.5 km/h 50% 0 mm 7 W/m2
19:00 20.7 °C 10.5 °C 1024.3 hPa North 4.8 km/h 16.1 km/h 52% 0 mm 0 W/m2
19:10 20.4 °C 10.2 °C 1024.3 hPa North 4.8 km/h 16.1 km/h 52% 0 mm 0 W/m2
19:20 20.2 °C 10 °C 1024.3 hPa North 4.8 km/h 12.9 km/h 52% 0 mm 0 W/m2
19:30 20 °C 10.1 °C 1024.3 hPa North 8 km/h 12.9 km/h 53% 0 mm 0 W/m2
19:40 19.7 °C 9.8 °C 1024.6 hPa North 4.8 km/h 11.3 km/h 53% 0 mm 0 W/m2
19:50 19.5 °C 9.9 °C 1024.6 hPa North 1.6 km/h 14.5 km/h 54% 0 mm 0 W/m2
20:00 19.1 °C 10.3 °C 1024.6 hPa SE 1.6 km/h 8 km/h 57% 0 mm 0 W/m2
20:10 18.6 °C 9.9 °C 1024.6 hPa NNW 1.6 km/h 4.8 km/h 57% 0 mm 0 W/m2
20:20 18.2 °C 9.8 °C 1024.9 hPa SE 3.2 km/h 8 km/h 58% 0 mm 0 W/m2
20:30 17.9 °C 9.7 °C 1024.9 hPa North 1.6 km/h 6.4 km/h 59% 0 mm 0 W/m2
20:40 17.5 °C 9.7 °C 1024.9 hPa South 4.8 km/h 8 km/h 60% 0 mm 0 W/m2
20:50 17.1 °C 9.8 °C 1025.3 hPa Calm   4.8 km/h 62% 0 mm 0 W/m2
21:00 16.7 °C 9.4 °C 1024.9 hPa Calm   3.2 km/h 62% 0 mm 0 W/m2
21:10 16.3 °C 9.2 °C 1025.3 hPa Calm   3.2 km/h 63% 0 mm 0 W/m2
21:20 15.9 °C 9.1 °C 1025.3 hPa NW 1.6 km/h 4.8 km/h 64% 0 mm 0 W/m2
21:30 15.7 °C 9.1 °C 1025.3 hPa Calm   3.2 km/h 65% 0 mm 0 W/m2
21:40 15.4 °C 8.8 °C 1025.3 hPa NNW 1.6 km/h 3.2 km/h 65% 0 mm 0 W/m2
21:50 15 °C 9.1 °C 1025.3 hPa WNW 1.6 km/h 3.2 km/h 68% 0 mm 0 W/m2
22:00 14.7 °C 8.8 °C 1025.3 hPa Calm   3.2 km/h 68% 0 mm 0 W/m2
22:10 14.4 °C 8.8 °C 1025.3 hPa Calm   3.2 km/h 69% 0 mm 0 W/m2
22:20 14.1 °C 8.7 °C 1025.6 hPa Calm   3.2 km/h 70% 0 mm 0 W/m2
22:30 13.8 °C 8.4 °C 1025.3 hPa Calm   3.2 km/h 70% 0 mm 0 W/m2
22:40 13.4 °C 8.4 °C 1025.6 hPa Calm   3.2 km/h 72% 0 mm 0 W/m2
22:50 13.1 °C 8.2 °C 1025.6 hPa Calm   3.2 km/h 72% 0 mm 0 W/m2
23:10 12.5 °C 8 °C 1025.6 hPa WNW 1.6 km/h 3.2 km/h 74% 0 mm 0 W/m2
23:20 12.3 °C 7.8 °C 1025.6 hPa Calm   3.2 km/h 74% 0 mm 0 W/m2
23:30 12.1 °C 7.6 °C 1025.6 hPa Calm   1.6 km/h 74% 0 mm 0 W/m2
23:40 11.9 °C 7.6 °C 1026 hPa Calm     75% 0 mm 0 W/m2
23:50 11.7 °C 7.4 °C 1026 hPa Calm   3.2 km/h 75% 0 mm 0 W/m2
Knjazevac, Serbia
Compliments of Weather Underground - 2 mb